Krsko, Slovenia
Current Conditions -  °F | °C
As of 4:30 PM on Friday 19 Dec 2014 (Local Time) from LJCE Reporting Station
Clear Clear  
Wind Chill: 57°   Ceiling: Unl
Heat Index: 57°   Visibility: 6mi
Dew Point: 43°   Wind: 6mph
Humidity: 59%   Direction: 240°WSW
Pressure: 30.06"   Gusts: NA
Location:  45.96°N, 15.49°E
Report Text: LJCE 191430Z AUTO 24005KT 200V280 9999 NCD 14/06 Q1018
Loading
Personal Weather Stations






























Interactive Weather Map New forecast layout! Learn more

10-Day Weather Forecast

Advertisements
Track Severe Weather on mobile